Impacts METAR Board
IDs:

KDEN - Denver Intl, CO, US

Updated at: 1000 UTC 22 Apr 2018
Potential Impact None Slight Moderate High
Time 21/22Z 21/23Z 22/00Z 22/01Z 22/02Z 22/03Z 22/04Z 22/05Z 22/06Z 22/07Z 22/08Z 22/09Z 22/10Z
Temp37 38 38 38 38 36 34 34 35 35 35 33 32
Dewpt33 34 34 34 35 34 32 32 31 31 31 30 29
Altim30.17 30.18 30.18 30.18 30.18 30.18 30.19 30.18 30.16 30.15 30.14 30.15 30.14
VIS10 10 10 9 10 9 10 9 10 10 10 10 10
CIG13 10 60 70 90 90 85 -- -- -- -- -- --
CoverOVCOVCOVCOVCBKNBKNBKNSCTFEWCLRCLRCLRCLR
FltCatMVFRMVFRVFRVFRVFRVFRVFRVFRVFRVFRVFRVFRVFR
WX-RA-----RA------------------
WDir190240210220180180160170210250230110140
WSpd5 6 5 9 5 6 7 7 9 8 10 6 6
WGst-- -- -- -- -- -- -- -- -- -- -- -- --
Raw hourly METARs
KDEN 212153Z 19005KT 10SM -RA OVC013 03/01 A3017 RMK AO2 RAB36 SLP221 P0000 T00280006
KDEN 212253Z 24006KT 10SM OVC010 03/01 A3018 RMK AO2 CIG 009V014 SLP225 RAE2156B37E46 P0001 T00330011
KDEN 212353Z 21005KT 10SM FEW026 OVC060 03/01 A3018 RMK AO2 RAB42E52 SLP225 P0000 60001 T00330011 10039 20011 55000
KDEN 220053Z 22009KT 9SM -RA BKN070 OVC085 03/01 A3018 RMK AO2 RAB11 SLP223 P0000 T00330011
KDEN 220153Z 18005KT 10SM SCT075 BKN090 03/02 A3018 RMK AO2 RAE05B36E47 SLP224 P0001 T00330017
KDEN 220253Z 18006KT 9SM BKN090 02/01 A3018 RMK AO2 SLP225 60001 T00220011 55000
KDEN 220353Z 16007KT 10SM FEW065 BKN085 01/00 A3019 RMK AO2 SLP229 T00110000
KDEN 220453Z 17007KT 9SM FEW060 SCT080 01/00 A3018 RMK AO2 SLP225 T00110000
KDEN 220553Z 21009KT 10SM FEW060 02/M01 A3016 RMK AO2 SLP218 60001 T00171006 10033 20006 58006
KDEN 220653Z 25008KT 10SM CLR 02/M01 A3015 RMK AO2 SLP211 T00171006 400391006
KDEN 220753Z 23010KT 10SM CLR 02/M01 A3014 RMK AO2 SLP204 T00171006
KDEN 220853Z 11006KT 10SM CLR 01/M01 A3015 RMK AO2 SLP211 T00061011 55004
KDEN 220953Z 14006KT 10SM CLR 00/M02 A3014 RMK AO2 SLP212 T00001017



Page loaded:  10:51 UTC  |   03:51 AM Pacific  |   04:51 AM Mountain  |   05:51 AM Central  |   06:51 AM Eastern

 

ADVISORIES

FORECASTS

FORECASTS

OBSERVATIONS

USER TOOLS

ABOUT US